sensor_id;sensor_type;location;lat;lon;timestamp;pressure;altitude;pressure_sealevel;temperature;humidity
76868;BME280;66168;45.478;11.060;2022-12-18T00:01:25;101890.36;;;6.51;72.43
76868;BME280;66168;45.478;11.060;2022-12-18T00:03:53;101892.93;;;6.54;72.61
76868;BME280;66168;45.478;11.060;2022-12-18T00:06:21;101891.58;;;6.55;72.55
76868;BME280;66168;45.478;11.060;2022-12-18T00:08:48;101886.36;;;6.57;72.43
76868;BME280;66168;45.478;11.060;2022-12-18T00:11:21;101884.30;;;6.58;72.54
76868;BME280;66168;45.478;11.060;2022-12-18T00:13:49;101885.16;;;6.58;72.33
76868;BME280;66168;45.478;11.060;2022-12-18T00:16:18;101889.08;;;6.58;72.55
76868;BME280;66168;45.478;11.060;2022-12-18T00:18:50;101890.21;;;6.57;72.46
76868;BME280;66168;45.478;11.060;2022-12-18T00:21:17;101891.26;;;6.57;72.52
76868;BME280;66168;45.478;11.060;2022-12-18T00:23:46;101890.05;;;6.61;72.27
76868;BME280;66168;45.478;11.060;2022-12-18T00:26:22;101891.09;;;6.66;72.62
76868;BME280;66168;45.478;11.060;2022-12-18T00:28:51;101890.34;;;6.69;72.68
76868;BME280;66168;45.478;11.060;2022-12-18T00:31:21;101891.24;;;6.68;72.53
76868;BME280;66168;45.478;11.060;2022-12-18T00:33:48;101891.90;;;6.69;72.61
76868;BME280;66168;45.478;11.060;2022-12-18T00:36:22;101894.20;;;6.69;72.51
76868;BME280;66168;45.478;11.060;2022-12-18T00:38:52;101897.65;;;6.70;72.60
76868;BME280;66168;45.478;11.060;2022-12-18T00:41:20;101897.94;;;6.71;72.75
76868;BME280;66168;45.478;11.060;2022-12-18T00:44:08;101900.33;;;6.72;72.75
76868;BME280;66168;45.478;11.060;2022-12-18T00:46:36;101899.50;;;6.73;72.41
76868;BME280;66168;45.478;11.060;2022-12-18T00:49:03;101900.96;;;6.75;72.22
76868;BME280;66168;45.478;11.060;2022-12-18T00:51:30;101905.26;;;6.78;72.46
76868;BME280;66168;45.478;11.060;2022-12-18T00:53:57;101911.32;;;6.80;72.39
76868;BME280;66168;45.478;11.060;2022-12-18T00:56:24;101913.96;;;6.77;72.69
76868;BME280;66168;45.478;11.060;2022-12-18T00:58:52;101919.73;;;6.74;72.79
76868;BME280;66168;45.478;11.060;2022-12-18T01:01:18;101925.90;;;6.69;72.76
76868;BME280;66168;45.478;11.060;2022-12-18T01:03:46;101931.88;;;6.63;72.72
76868;BME280;66168;45.478;11.060;2022-12-18T01:06:16;101933.80;;;6.54;72.54
76868;BME280;66168;45.478;11.060;2022-12-18T01:08:44;101939.29;;;6.52;72.84
76868;BME280;66168;45.478;11.060;2022-12-18T01:11:16;101947.65;;;6.53;72.88
76868;BME280;66168;45.478;11.060;2022-12-18T01:13:44;101948.52;;;6.48;72.83
76868;BME280;66168;45.478;11.060;2022-12-18T01:16:13;101951.96;;;6.47;72.78
76868;BME280;66168;45.478;11.060;2022-12-18T01:18:40;101952.45;;;6.48;73.02
76868;BME280;66168;45.478;11.060;2022-12-18T01:21:10;101960.94;;;6.49;73.29
76868;BME280;66168;45.478;11.060;2022-12-18T01:23:37;101966.91;;;6.54;73.33
76868;BME280;66168;45.478;11.060;2022-12-18T01:26:07;101969.70;;;6.59;73.38
76868;BME280;66168;45.478;11.060;2022-12-18T01:28:35;101973.48;;;6.63;72.94
76868;BME280;66168;45.478;11.060;2022-12-18T01:33:44;101980.09;;;6.70;72.92
76868;BME280;66168;45.478;11.060;2022-12-18T01:36:19;101982.70;;;6.73;73.00
76868;BME280;66168;45.478;11.060;2022-12-18T01:38:47;101983.59;;;6.75;72.82
76868;BME280;66168;45.478;11.060;2022-12-18T01:41:16;101988.00;;;6.80;72.80
76868;BME280;66168;45.478;11.060;2022-12-18T01:43:54;101987.81;;;6.84;73.06
76868;BME280;66168;45.478;11.060;2022-12-18T01:46:24;101993.33;;;6.88;72.83
76868;BME280;66168;45.478;11.060;2022-12-18T01:48:55;101992.20;;;6.91;72.89
76868;BME280;66168;45.478;11.060;2022-12-18T01:51:23;101993.65;;;6.95;72.82
76868;BME280;66168;45.478;11.060;2022-12-18T01:53:52;101996.31;;;6.99;72.65
76868;BME280;66168;45.478;11.060;2022-12-18T01:56:20;101995.98;;;7.02;72.52
76868;BME280;66168;45.478;11.060;2022-12-18T01:59:00;102002.85;;;7.04;72.49
76868;BME280;66168;45.478;11.060;2022-12-18T02:01:30;102005.95;;;7.05;72.38
76868;BME280;66168;45.478;11.060;2022-12-18T02:04:19;102000.98;;;7.05;72.52
76868;BME280;66168;45.478;11.060;2022-12-18T02:06:51;102004.58;;;7.09;72.44
76868;BME280;66168;45.478;11.060;2022-12-18T02:09:30;102007.61;;;7.13;72.59
76868;BME280;66168;45.478;11.060;2022-12-18T02:12:03;102006.38;;;7.17;72.48
76868;BME280;66168;45.478;11.060;2022-12-18T02:14:44;102009.36;;;7.20;72.67
76868;BME280;66168;45.478;11.060;2022-12-18T02:17:24;102009.80;;;7.23;72.60
76868;BME280;66168;45.478;11.060;2022-12-18T02:23:00;102010.86;;;7.27;72.26
76868;BME280;66168;45.478;11.060;2022-12-18T02:28:46;102019.48;;;7.30;71.86
76868;BME280;66168;45.478;11.060;2022-12-18T02:31:19;102015.38;;;7.26;71.63
76868;BME280;66168;45.478;11.060;2022-12-18T02:33:49;102015.61;;;7.18;71.66
76868;BME280;66168;45.478;11.060;2022-12-18T02:36:18;102015.00;;;7.17;71.78
76868;BME280;66168;45.478;11.060;2022-12-18T02:38:47;102018.45;;;7.21;71.79
76868;BME280;66168;45.478;11.060;2022-12-18T02:41:15;102027.61;;;7.23;72.41
76868;BME280;66168;45.478;11.060;2022-12-18T02:43:53;102034.93;;;7.26;72.49
76868;BME280;66168;45.478;11.060;2022-12-18T02:49:12;102038.39;;;7.36;72.16
76868;BME280;66168;45.478;11.060;2022-12-18T02:56:55;102042.54;;;7.48;71.46
76868;BME280;66168;45.478;11.060;2022-12-18T02:59:31;102046.63;;;7.50;71.61
76868;BME280;66168;45.478;11.060;2022-12-18T03:02:11;102041.10;;;7.51;71.42
76868;BME280;66168;45.478;11.060;2022-12-18T03:04:48;102045.31;;;7.49;71.33
76868;BME280;66168;45.478;11.060;2022-12-18T03:07:25;102046.27;;;7.48;71.52
76868;BME280;66168;45.478;11.060;2022-12-18T03:09:54;102047.62;;;7.46;71.09
76868;BME280;66168;45.478;11.060;2022-12-18T03:12:31;102048.15;;;7.47;71.29
76868;BME280;66168;45.478;11.060;2022-12-18T03:17:52;102049.52;;;7.38;71.25
76868;BME280;66168;45.478;11.060;2022-12-18T03:20:21;102048.46;;;7.29;71.86
76868;BME280;66168;45.478;11.060;2022-12-18T03:22:53;102047.84;;;7.26;72.10
76868;BME280;66168;45.478;11.060;2022-12-18T03:25:22;102048.80;;;7.27;72.57
76868;BME280;66168;45.478;11.060;2022-12-18T03:27:56;102047.00;;;7.30;72.34
76868;BME280;66168;45.478;11.060;2022-12-18T03:30:26;102048.20;;;7.32;72.31
76868;BME280;66168;45.478;11.060;2022-12-18T03:33:08;102053.02;;;7.34;72.44
76868;BME280;66168;45.478;11.060;2022-12-18T03:35:41;102061.14;;;7.36;72.46
76868;BME280;66168;45.478;11.060;2022-12-18T03:38:10;102062.68;;;7.36;72.25
76868;BME280;66168;45.478;11.060;2022-12-18T03:43:20;102061.51;;;7.40;72.21
76868;BME280;66168;45.478;11.060;2022-12-18T03:46:04;102068.75;;;7.40;72.37
76868;BME280;66168;45.478;11.060;2022-12-18T03:48:37;102074.88;;;7.34;72.49
76868;BME280;66168;45.478;11.060;2022-12-18T03:51:14;102079.52;;;7.31;72.36
76868;BME280;66168;45.478;11.060;2022-12-18T03:56:26;102080.55;;;7.29;72.44
76868;BME280;66168;45.478;11.060;2022-12-18T03:58:56;102082.02;;;7.26;72.37
76868;BME280;66168;45.478;11.060;2022-12-18T04:01:32;102084.79;;;7.25;72.63
76868;BME280;66168;45.478;11.060;2022-12-18T04:04:01;102087.38;;;7.23;72.48
76868;BME280;66168;45.478;11.060;2022-12-18T04:06:35;102091.87;;;7.24;72.47
76868;BME280;66168;45.478;11.060;2022-12-18T04:09:04;102098.92;;;7.27;72.68
76868;BME280;66168;45.478;11.060;2022-12-18T04:11:34;102100.35;;;7.26;72.75
76868;BME280;66168;45.478;11.060;2022-12-18T04:14:02;102103.48;;;7.25;72.64
76868;BME280;66168;45.478;11.060;2022-12-18T04:16:33;102103.84;;;7.25;72.95
76868;BME280;66168;45.478;11.060;2022-12-18T04:19:01;102107.61;;;7.24;73.00
76868;BME280;66168;45.478;11.060;2022-12-18T04:21:32;102108.80;;;7.22;72.96
76868;BME280;66168;45.478;11.060;2022-12-18T04:23:59;102109.77;;;7.21;72.89
76868;BME280;66168;45.478;11.060;2022-12-18T04:26:27;102111.19;;;7.19;73.17
76868;BME280;66168;45.478;11.060;2022-12-18T04:29:03;102117.84;;;7.17;73.03
76868;BME280;66168;45.478;11.060;2022-12-18T04:31:29;102119.96;;;7.19;72.94
76868;BME280;66168;45.478;11.060;2022-12-18T04:33:56;102121.04;;;7.21;73.18
76868;BME280;66168;45.478;11.060;2022-12-18T04:36:26;102123.02;;;7.23;73.25
76868;BME280;66168;45.478;11.060;2022-12-18T04:38:54;102125.35;;;7.25;73.48
76868;BME280;66168;45.478;11.060;2022-12-18T04:41:21;102129.86;;;7.26;73.29
76868;BME280;66168;45.478;11.060;2022-12-18T04:43:48;102133.09;;;7.25;73.39
76868;BME280;66168;45.478;11.060;2022-12-18T04:46:15;102134.03;;;7.24;73.48
76868;BME280;66168;45.478;11.060;2022-12-18T04:48:45;102134.31;;;7.25;73.54
76868;BME280;66168;45.478;11.060;2022-12-18T04:51:12;102135.83;;;7.24;73.68
76868;BME280;66168;45.478;11.060;2022-12-18T04:53:39;102142.58;;;7.23;73.47
76868;BME280;66168;45.478;11.060;2022-12-18T04:56:14;102149.28;;;7.23;73.25
76868;BME280;66168;45.478;11.060;2022-12-18T04:58:43;102152.72;;;7.27;73.46
76868;BME280;66168;45.478;11.060;2022-12-18T05:01:12;102158.49;;;7.27;73.43
76868;BME280;66168;45.478;11.060;2022-12-18T05:03:40;102161.92;;;7.29;73.57
76868;BME280;66168;45.478;11.060;2022-12-18T05:06:08;102162.13;;;7.28;73.74
76868;BME280;66168;45.478;11.060;2022-12-18T05:08:35;102164.73;;;7.29;73.68
76868;BME280;66168;45.478;11.060;2022-12-18T05:11:13;102167.27;;;7.30;73.54
76868;BME280;66168;45.478;11.060;2022-12-18T05:13:43;102176.38;;;7.31;73.57
76868;BME280;66168;45.478;11.060;2022-12-18T05:16:11;102174.91;;;7.32;73.51
76868;BME280;66168;45.478;11.060;2022-12-18T05:18:38;102179.38;;;7.31;73.48
76868;BME280;66168;45.478;11.060;2022-12-18T05:21:05;102179.71;;;7.29;73.36
76868;BME280;66168;45.478;11.060;2022-12-18T05:23:36;102178.65;;;7.29;73.41
76868;BME280;66168;45.478;11.060;2022-12-18T05:26:05;102180.02;;;7.32;73.42
76868;BME280;66168;45.478;11.060;2022-12-18T05:28:34;102180.04;;;7.34;73.42
76868;BME280;66168;45.478;11.060;2022-12-18T05:31:02;102183.28;;;7.35;73.72
76868;BME280;66168;45.478;11.060;2022-12-18T05:33:31;102186.38;;;7.36;73.65
76868;BME280;66168;45.478;11.060;2022-12-18T05:36:03;102188.08;;;7.37;73.70
76868;BME280;66168;45.478;11.060;2022-12-18T05:38:31;102193.66;;;7.38;73.63
76868;BME280;66168;45.478;11.060;2022-12-18T05:40:58;102199.59;;;7.38;73.61
76868;BME280;66168;45.478;11.060;2022-12-18T05:43:26;102200.83;;;7.39;73.55
76868;BME280;66168;45.478;11.060;2022-12-18T05:45:53;102206.94;;;7.37;73.56
76868;BME280;66168;45.478;11.060;2022-12-18T05:48:21;102209.80;;;7.37;73.64
76868;BME280;66168;45.478;11.060;2022-12-18T05:50:49;102209.36;;;7.36;73.55
76868;BME280;66168;45.478;11.060;2022-12-18T05:53:19;102212.17;;;7.38;73.53
76868;BME280;66168;45.478;11.060;2022-12-18T05:55:47;102215.90;;;7.40;73.69
76868;BME280;66168;45.478;11.060;2022-12-18T05:58:14;102213.25;;;7.42;73.66
76868;BME280;66168;45.478;11.060;2022-12-18T06:00:44;102211.55;;;7.44;73.65
76868;BME280;66168;45.478;11.060;2022-12-18T06:03:12;102218.89;;;7.45;73.66
76868;BME280;66168;45.478;11.060;2022-12-18T06:05:43;102226.63;;;7.45;73.59
76868;BME280;66168;45.478;11.060;2022-12-18T06:08:11;102231.92;;;7.45;73.51
76868;BME280;66168;45.478;11.060;2022-12-18T06:10:39;102238.78;;;7.46;73.55
76868;BME280;66168;45.478;11.060;2022-12-18T06:13:07;102240.81;;;7.45;73.50
76868;BME280;66168;45.478;11.060;2022-12-18T06:15:37;102243.50;;;7.44;73.45
76868;BME280;66168;45.478;11.060;2022-12-18T06:18:04;102247.71;;;7.47;73.34
76868;BME280;66168;45.478;11.060;2022-12-18T06:20:31;102249.23;;;7.48;73.56
76868;BME280;66168;45.478;11.060;2022-12-18T06:22:59;102253.64;;;7.48;73.80
76868;BME280;66168;45.478;11.060;2022-12-18T06:25:26;102257.19;;;7.47;73.71
76868;BME280;66168;45.478;11.060;2022-12-18T06:27:54;102264.01;;;7.48;73.70
76868;BME280;66168;45.478;11.060;2022-12-18T06:30:21;102264.40;;;7.48;73.69
76868;BME280;66168;45.478;11.060;2022-12-18T06:32:49;102266.98;;;7.46;73.63
76868;BME280;66168;45.478;11.060;2022-12-18T06:35:22;102275.39;;;7.45;73.52
76868;BME280;66168;45.478;11.060;2022-12-18T06:37:49;102283.87;;;7.42;73.65
76868;BME280;66168;45.478;11.060;2022-12-18T06:40:16;102284.54;;;7.40;73.62
76868;BME280;66168;45.478;11.060;2022-12-18T06:42:43;102286.73;;;7.39;73.50
76868;BME280;66168;45.478;11.060;2022-12-18T06:45:10;102290.59;;;7.39;73.57
76868;BME280;66168;45.478;11.060;2022-12-18T06:47:38;102292.83;;;7.42;73.80
76868;BME280;66168;45.478;11.060;2022-12-18T06:50:05;102292.56;;;7.44;73.81
76868;BME280;66168;45.478;11.060;2022-12-18T06:52:33;102295.38;;;7.44;73.88
76868;BME280;66168;45.478;11.060;2022-12-18T06:55:00;102295.84;;;7.45;74.00
76868;BME280;66168;45.478;11.060;2022-12-18T06:57:27;102296.59;;;7.44;73.84
76868;BME280;66168;45.478;11.060;2022-12-18T06:59:54;102294.34;;;7.43;73.96
76868;BME280;66168;45.478;11.060;2022-12-18T07:02:21;102303.39;;;7.43;73.69
76868;BME280;66168;45.478;11.060;2022-12-18T07:04:50;102302.15;;;7.42;73.80
76868;BME280;66168;45.478;11.060;2022-12-18T07:07:17;102307.31;;;7.40;73.92
76868;BME280;66168;45.478;11.060;2022-12-18T07:09:44;102310.17;;;7.37;73.55
76868;BME280;66168;45.478;11.060;2022-12-18T07:12:11;102314.95;;;7.39;73.61
76868;BME280;66168;45.478;11.060;2022-12-18T07:14:38;102315.79;;;7.39;73.86
76868;BME280;66168;45.478;11.060;2022-12-18T07:17:04;102322.77;;;7.41;74.06
76868;BME280;66168;45.478;11.060;2022-12-18T07:19:32;102326.39;;;7.42;74.07
76868;BME280;66168;45.478;11.060;2022-12-18T07:21:59;102331.04;;;7.43;73.98
76868;BME280;66168;45.478;11.060;2022-12-18T07:24:27;102334.00;;;7.44;73.85
76868;BME280;66168;45.478;11.060;2022-12-18T07:26:54;102336.10;;;7.45;73.79
76868;BME280;66168;45.478;11.060;2022-12-18T07:29:21;102343.06;;;7.43;73.70
76868;BME280;66168;45.478;11.060;2022-12-18T07:31:48;102342.88;;;7.43;73.61
76868;BME280;66168;45.478;11.060;2022-12-18T07:34:15;102352.63;;;7.42;73.44
76868;BME280;66168;45.478;11.060;2022-12-18T07:36:43;102358.63;;;7.42;73.48
76868;BME280;66168;45.478;11.060;2022-12-18T07:39:11;102360.81;;;7.47;73.33
76868;BME280;66168;45.478;11.060;2022-12-18T07:41:38;102361.67;;;7.50;73.68
76868;BME280;66168;45.478;11.060;2022-12-18T07:44:14;102364.80;;;7.52;73.87
76868;BME280;66168;45.478;11.060;2022-12-18T07:46:41;102366.64;;;7.54;73.83
76868;BME280;66168;45.478;11.060;2022-12-18T07:49:08;102371.02;;;7.57;73.75
76868;BME280;66168;45.478;11.060;2022-12-18T07:51:34;102379.19;;;7.60;73.52
76868;BME280;66168;45.478;11.060;2022-12-18T07:54:01;102383.94;;;7.63;73.64
76868;BME280;66168;45.478;11.060;2022-12-18T07:56:28;102388.08;;;7.64;73.60
76868;BME280;66168;45.478;11.060;2022-12-18T07:58:58;102386.23;;;7.63;73.63
76868;BME280;66168;45.478;11.060;2022-12-18T08:01:25;102390.18;;;7.62;73.25
76868;BME280;66168;45.478;11.060;2022-12-18T08:03:52;102394.77;;;7.62;73.32
76868;BME280;66168;45.478;11.060;2022-12-18T08:06:19;102406.25;;;7.67;73.28
76868;BME280;66168;45.478;11.060;2022-12-18T08:08:54;102417.23;;;7.68;73.46
76868;BME280;66168;45.478;11.060;2022-12-18T08:11:22;102421.14;;;7.70;73.68
76868;BME280;66168;45.478;11.060;2022-12-18T08:13:50;102421.15;;;7.73;73.58
76868;BME280;66168;45.478;11.060;2022-12-18T08:16:17;102424.10;;;7.76;73.57
76868;BME280;66168;45.478;11.060;2022-12-18T08:18:45;102429.52;;;7.79;73.41
76868;BME280;66168;45.478;11.060;2022-12-18T08:21:14;102440.67;;;7.81;73.25
76868;BME280;66168;45.478;11.060;2022-12-18T08:23:42;102446.73;;;7.82;73.30
76868;BME280;66168;45.478;11.060;2022-12-18T08:26:10;102449.89;;;7.83;73.22
76868;BME280;66168;45.478;11.060;2022-12-18T08:28:38;102451.23;;;7.79;73.21
76868;BME280;66168;45.478;11.060;2022-12-18T08:31:06;102452.67;;;7.76;73.16
76868;BME280;66168;45.478;11.060;2022-12-18T08:33:34;102455.89;;;7.78;73.09
76868;BME280;66168;45.478;11.060;2022-12-18T08:36:05;102457.02;;;7.82;73.51
76868;BME280;66168;45.478;11.060;2022-12-18T08:38:33;102462.41;;;7.85;73.49
76868;BME280;66168;45.478;11.060;2022-12-18T08:43:27;102474.71;;;7.88;73.52
76868;BME280;66168;45.478;11.060;2022-12-18T08:46:32;102482.59;;;7.91;73.54
76868;BME280;66168;45.478;11.060;2022-12-18T08:48:59;102483.44;;;7.94;73.56
76868;BME280;66168;45.478;11.060;2022-12-18T08:51:26;102483.56;;;7.95;73.35
76868;BME280;66168;45.478;11.060;2022-12-18T08:53:53;102482.60;;;7.94;73.25
76868;BME280;66168;45.478;11.060;2022-12-18T08:56:20;102480.69;;;7.93;73.34
76868;BME280;66168;45.478;11.060;2022-12-18T08:58:46;102484.32;;;7.99;73.22
76868;BME280;66168;45.478;11.060;2022-12-18T09:01:13;102488.56;;;8.02;73.18
76868;BME280;66168;45.478;11.060;2022-12-18T09:03:40;102493.25;;;7.98;73.25
76868;BME280;66168;45.478;11.060;2022-12-18T09:06:08;102492.00;;;7.96;73.38
76868;BME280;66168;45.478;11.060;2022-12-18T09:08:35;102498.23;;;7.97;73.51
76868;BME280;66168;45.478;11.060;2022-12-18T09:11:04;102501.89;;;7.95;73.44
76868;BME280;66168;45.478;11.060;2022-12-18T09:13:30;102505.20;;;7.94;73.55
76868;BME280;66168;45.478;11.060;2022-12-18T09:15:57;102503.82;;;7.96;73.58
76868;BME280;66168;45.478;11.060;2022-12-18T09:18:24;102505.73;;;7.96;73.36
76868;BME280;66168;45.478;11.060;2022-12-18T09:20:51;102503.73;;;7.97;72.55
76868;BME280;66168;45.478;11.060;2022-12-18T09:23:20;102506.30;;;7.98;72.16
76868;BME280;66168;45.478;11.060;2022-12-18T09:25:47;102507.20;;;7.98;71.97
76868;BME280;66168;45.478;11.060;2022-12-18T09:28:16;102510.03;;;8.02;71.52
76868;BME280;66168;45.478;11.060;2022-12-18T09:30:47;102506.19;;;8.11;71.21
76868;BME280;66168;45.478;11.060;2022-12-18T09:33:16;102501.63;;;8.20;71.02
76868;BME280;66168;45.478;11.060;2022-12-18T09:35:43;102503.21;;;8.27;70.64
76868;BME280;66168;45.478;11.060;2022-12-18T09:38:16;102507.26;;;8.35;70.53
76868;BME280;66168;45.478;11.060;2022-12-18T09:40:46;102504.84;;;8.43;70.18
76868;BME280;66168;45.478;11.060;2022-12-18T09:43:20;102500.84;;;8.50;69.85
76868;BME280;66168;45.478;11.060;2022-12-18T09:45:55;102497.13;;;8.54;69.29
76868;BME280;66168;45.478;11.060;2022-12-18T09:48:35;102497.39;;;8.55;68.95
76868;BME280;66168;45.478;11.060;2022-12-18T09:51:19;102502.21;;;8.55;69.04
76868;BME280;66168;45.478;11.060;2022-12-18T09:53:56;102503.89;;;8.54;68.52
76868;BME280;66168;45.478;11.060;2022-12-18T09:56:27;102500.81;;;8.57;68.71
76868;BME280;66168;45.478;11.060;2022-12-18T09:58:59;102496.80;;;8.61;68.64
76868;BME280;66168;45.478;11.060;2022-12-18T10:01:28;102491.77;;;8.62;68.45
76868;BME280;66168;45.478;11.060;2022-12-18T10:04:08;102492.33;;;8.64;68.37
76868;BME280;66168;45.478;11.060;2022-12-18T10:06:54;102492.77;;;8.69;68.63
76868;BME280;66168;45.478;11.060;2022-12-18T10:12:28;102482.82;;;8.77;68.35
76868;BME280;66168;45.478;11.060;2022-12-18T10:17:56;102472.46;;;8.87;67.57
76868;BME280;66168;45.478;11.060;2022-12-18T10:20:48;102471.34;;;8.96;67.53
76868;BME280;66168;45.478;11.060;2022-12-18T10:23:46;102472.45;;;9.16;67.36
76868;BME280;66168;45.478;11.060;2022-12-18T10:26:14;102469.31;;;9.33;66.47
76868;BME280;66168;45.478;11.060;2022-12-18T10:28:43;102469.71;;;9.40;66.13
76868;BME280;66168;45.478;11.060;2022-12-18T10:31:19;102470.17;;;9.44;66.12
76868;BME280;66168;45.478;11.060;2022-12-18T10:33:49;102472.10;;;9.41;65.74
76868;BME280;66168;45.478;11.060;2022-12-18T10:36:16;102470.64;;;9.38;65.58
76868;BME280;66168;45.478;11.060;2022-12-18T10:38:43;102475.94;;;9.47;65.83
76868;BME280;66168;45.478;11.060;2022-12-18T10:43:50;102478.42;;;9.77;65.36
76868;BME280;66168;45.478;11.060;2022-12-18T10:46:35;102479.20;;;9.89;64.43
76868;BME280;66168;45.478;11.060;2022-12-18T10:49:02;102482.14;;;9.86;64.43
76868;BME280;66168;45.478;11.060;2022-12-18T10:51:36;102481.95;;;9.77;64.65
76868;BME280;66168;45.478;11.060;2022-12-18T10:54:15;102484.34;;;9.76;65.29
76868;BME280;66168;45.478;11.060;2022-12-18T10:56:43;102479.50;;;9.81;65.13
76868;BME280;66168;45.478;11.060;2022-12-18T10:59:14;102480.83;;;9.86;64.89
76868;BME280;66168;45.478;11.060;2022-12-18T11:01:53;102482.59;;;9.93;64.42
76868;BME280;66168;45.478;11.060;2022-12-18T11:07:08;102472.17;;;10.16;63.81
76868;BME280;66168;45.478;11.060;2022-12-18T11:09:38;102471.66;;;10.26;63.15
76868;BME280;66168;45.478;11.060;2022-12-18T11:12:16;102470.52;;;10.37;62.96
76868;BME280;66168;45.478;11.060;2022-12-18T11:14:48;102461.02;;;10.47;62.83
76868;BME280;66168;45.478;11.060;2022-12-18T11:17:30;102460.50;;;10.51;61.98
76868;BME280;66168;45.478;11.060;2022-12-18T11:20:02;102465.66;;;10.53;62.55
76868;BME280;66168;45.478;11.060;2022-12-18T11:22:32;102458.02;;;10.59;62.60
76868;BME280;66168;45.478;11.060;2022-12-18T11:25:00;102457.48;;;10.57;62.11
76868;BME280;66168;45.478;11.060;2022-12-18T11:33:38;102456.00;;;10.12;62.31
76868;BME280;66168;45.478;11.060;2022-12-18T11:36:31;102452.86;;;10.07;61.90
76868;BME280;66168;45.478;11.060;2022-12-18T11:39:06;102453.77;;;10.09;62.13
76868;BME280;66168;45.478;11.060;2022-12-18T11:41:43;102445.30;;;10.11;61.88
76868;BME280;66168;45.478;11.060;2022-12-18T11:44:58;102443.09;;;10.10;60.86
76868;BME280;66168;45.478;11.060;2022-12-18T11:47:49;102442.21;;;10.05;61.94
76868;BME280;66168;45.478;11.060;2022-12-18T11:50:23;102440.77;;;10.05;62.37
76868;BME280;66168;45.478;11.060;2022-12-18T11:52:51;102437.30;;;10.07;62.42
76868;BME280;66168;45.478;11.060;2022-12-18T11:58:07;102433.20;;;10.09;62.73
76868;BME280;66168;45.478;11.060;2022-12-18T12:01:05;102431.09;;;10.11;63.06
76868;BME280;66168;45.478;11.060;2022-12-18T12:22:56;102432.89;;;10.13;62.16
76868;BME280;66168;45.478;11.060;2022-12-18T12:33:52;102424.67;;;10.01;62.83
76868;BME280;66168;45.478;11.060;2022-12-18T12:39:06;102425.38;;;9.88;62.70
76868;BME280;66168;45.478;11.060;2022-12-18T12:41:36;102425.84;;;9.83;63.04
76868;BME280;66168;45.478;11.060;2022-12-18T12:44:34;102421.20;;;9.73;62.78
76868;BME280;66168;45.478;11.060;2022-12-18T12:47:11;102420.45;;;9.63;62.91
76868;BME280;66168;45.478;11.060;2022-12-18T12:49:42;102420.02;;;9.60;63.66
76868;BME280;66168;45.478;11.060;2022-12-18T12:52:34;102422.67;;;9.57;64.14
76868;BME280;66168;45.478;11.060;2022-12-18T12:55:05;102421.42;;;9.51;63.77
76868;BME280;66168;45.478;11.060;2022-12-18T12:57:48;102413.08;;;9.49;63.81
76868;BME280;66168;45.478;11.060;2022-12-18T13:00:19;102412.09;;;9.46;63.88
76868;BME280;66168;45.478;11.060;2022-12-18T13:03:18;102414.22;;;9.41;63.81
76868;BME280;66168;45.478;11.060;2022-12-18T13:06:02;102411.39;;;9.37;63.90
76868;BME280;66168;45.478;11.060;2022-12-18T13:08:52;102407.81;;;9.34;64.00
76868;BME280;66168;45.478;11.060;2022-12-18T13:11:41;102407.16;;;9.29;64.13
76868;BME280;66168;45.478;11.060;2022-12-18T13:14:34;102411.24;;;9.26;64.37
76868;BME280;66168;45.478;11.060;2022-12-18T13:20:07;102399.20;;;9.29;64.05
76868;BME280;66168;45.478;11.060;2022-12-18T13:22:44;102398.06;;;9.29;63.86
76868;BME280;66168;45.478;11.060;2022-12-18T13:25:34;102395.52;;;9.30;64.03
76868;BME280;66168;45.478;11.060;2022-12-18T13:28:11;102389.95;;;9.29;63.84
76868;BME280;66168;45.478;11.060;2022-12-18T13:49:00;102389.73;;;9.19;64.02
76868;BME280;66168;45.478;11.060;2022-12-18T13:51:28;102392.03;;;9.17;64.28
76868;BME280;66168;45.478;11.060;2022-12-18T13:54:17;102393.71;;;9.16;64.09
76868;BME280;66168;45.478;11.060;2022-12-18T13:56:47;102396.35;;;9.16;63.91
76868;BME280;66168;45.478;11.060;2022-12-18T14:01:53;102401.70;;;9.11;63.45
76868;BME280;66168;45.478;11.060;2022-12-18T14:06:53;102394.20;;;9.08;63.39
76868;BME280;66168;45.478;11.060;2022-12-18T14:09:26;102396.02;;;9.05;63.25
76868;BME280;66168;45.478;11.060;2022-12-18T14:11:53;102387.36;;;9.00;62.93
76868;BME280;66168;45.478;11.060;2022-12-18T14:14:44;102391.23;;;8.96;62.93
76868;BME280;66168;45.478;11.060;2022-12-18T14:17:11;102394.20;;;8.92;63.09
76868;BME280;66168;45.478;11.060;2022-12-18T14:19:47;102393.09;;;8.91;63.05
76868;BME280;66168;45.478;11.060;2022-12-18T14:22:20;102396.66;;;8.88;63.19
76868;BME280;66168;45.478;11.060;2022-12-18T14:27:38;102399.84;;;8.86;63.41
76868;BME280;66168;45.478;11.060;2022-12-18T14:30:43;102390.46;;;8.84;63.52
76868;BME280;66168;45.478;11.060;2022-12-18T14:33:17;102391.18;;;8.81;63.61
76868;BME280;66168;45.478;11.060;2022-12-18T14:35:57;102390.83;;;8.79;63.56
76868;BME280;66168;45.478;11.060;2022-12-18T14:38:38;102395.75;;;8.77;62.81
76868;BME280;66168;45.478;11.060;2022-12-18T14:41:10;102396.84;;;8.75;62.45
76868;BME280;66168;45.478;11.060;2022-12-18T14:43:39;102398.61;;;8.72;62.27
76868;BME280;66168;45.478;11.060;2022-12-18T14:48:53;102403.34;;;8.67;62.82
76868;BME280;66168;45.478;11.060;2022-12-18T14:51:29;102403.08;;;8.65;63.04
76868;BME280;66168;45.478;11.060;2022-12-18T14:54:02;102405.97;;;8.62;62.88
76868;BME280;66168;45.478;11.060;2022-12-18T14:59:02;102416.05;;;8.56;63.05
76868;BME280;66168;45.478;11.060;2022-12-18T15:04:37;102422.48;;;8.48;63.39
76868;BME280;66168;45.478;11.060;2022-12-18T15:09:38;102427.80;;;8.38;63.84
76868;BME280;66168;45.478;11.060;2022-12-18T15:12:22;102430.60;;;8.34;63.66